createdAt,value
2019-04-14T00:01:50.085Z,72.60
2019-04-14T00:04:25.209Z,72.60
2019-04-14T00:06:55.455Z,72.30
2019-04-14T00:09:25.606Z,72.40
2019-04-14T00:11:57.583Z,72.30
2019-04-14T00:14:27.693Z,72.00
2019-04-14T00:16:59.552Z,72.00
2019-04-14T00:19:30.620Z,72.40
2019-04-14T00:22:03.220Z,72.60
2019-04-14T00:24:35.728Z,72.40
2019-04-14T00:27:06.542Z,72.60
2019-04-14T00:29:37.154Z,72.50
2019-04-14T00:32:07.462Z,72.00
2019-04-14T00:34:50.909Z,72.10
2019-04-14T00:37:40.981Z,72.10
2019-04-14T00:40:17.031Z,71.90
2019-04-14T00:43:00.609Z,72.30
2019-04-14T00:45:43.420Z,72.60
2019-04-14T00:48:15.763Z,72.70
2019-04-14T00:51:03.105Z,72.80
2019-04-14T00:53:33.873Z,72.90
2019-04-14T00:56:04.267Z,72.90
2019-04-14T00:58:34.757Z,73.10
2019-04-14T01:01:06.931Z,73.00
2019-04-14T01:03:37.408Z,73.20
2019-04-14T01:06:09.652Z,73.30
2019-04-14T01:08:40.347Z,73.30
2019-04-14T01:11:11.687Z,73.70
2019-04-14T01:13:43.933Z,73.90
2019-04-14T01:16:18.939Z,74.10
2019-04-14T01:18:47.199Z,74.50
2019-04-14T01:21:17.475Z,74.20
2019-04-14T01:23:48.011Z,74.20
2019-04-14T01:26:20.370Z,73.90
2019-04-14T01:28:50.528Z,74.00
2019-04-14T01:31:20.920Z,73.60
2019-04-14T01:33:51.221Z,73.90
2019-04-14T01:36:21.419Z,73.60
2019-04-14T01:38:51.434Z,73.60
2019-04-14T01:41:21.795Z,73.90
2019-04-14T01:43:51.946Z,74.10
2019-04-14T01:46:26.558Z,74.00
2019-04-14T01:48:54.197Z,74.20
2019-04-14T01:51:44.192Z,74.20
2019-04-14T01:54:23.518Z,73.90
2019-04-14T01:57:02.481Z,74.30
2019-04-14T01:59:33.141Z,74.10
2019-04-14T02:02:05.130Z,74.20
2019-04-14T02:04:35.557Z,74.80
2019-04-14T02:07:05.954Z,74.80
2019-04-14T02:09:37.823Z,74.70
2019-04-14T02:12:08.427Z,75.20
2019-04-14T02:14:58.252Z,75.20
2019-04-14T02:17:28.558Z,75.40
2019-04-14T02:19:59.015Z,75.30
2019-04-14T02:22:29.227Z,75.30
2019-04-14T02:25:01.457Z,75.10
2019-04-14T02:27:31.915Z,75.30
2019-04-14T02:30:03.838Z,75.40
2019-04-14T02:33:05.356Z,75.50
2019-04-14T02:35:44.861Z,75.30
2019-04-14T02:38:23.372Z,75.70
2019-04-14T02:40:53.247Z,76.00
2019-04-14T02:43:23.862Z,75.90
2019-04-14T02:45:59.770Z,76.00
2019-04-14T02:48:41.937Z,76.00
2019-04-14T02:51:10.830Z,76.30
2019-04-14T02:53:44.173Z,76.60
2019-04-14T02:56:08.557Z,76.30
2019-04-14T02:58:53.600Z,76.50
2019-04-14T03:01:21.205Z,76.40
2019-04-14T03:03:49.521Z,76.60
2019-04-14T03:08:59.112Z,76.90
2019-04-14T03:14:06.324Z,77.20
2019-04-14T03:17:07.600Z,77.30
2019-04-14T03:19:39.064Z,77.50
2019-04-14T03:22:25.878Z,77.60
2019-04-14T03:24:53.848Z,77.80
2019-04-14T03:27:49.831Z,78.10
2019-04-14T03:30:34.031Z,78.20
2019-04-14T03:40:27.458Z,78.90
2019-04-14T03:43:03.999Z,79.30
2019-04-14T03:45:43.405Z,79.40
2019-04-14T03:48:34.410Z,79.30
2019-04-14T03:50:36.764Z,79.40
2019-04-14T03:55:58.708Z,80.00
2019-04-14T03:58:24.631Z,80.60
2019-04-14T04:00:55.412Z,80.30
2019-04-14T04:03:26.085Z,80.50
2019-04-14T04:05:56.534Z,80.40
2019-04-14T04:08:26.977Z,80.60
2019-04-14T04:10:57.625Z,80.60
2019-04-14T04:13:28.124Z,80.80
2019-04-14T04:16:13.666Z,81.00
2019-04-14T04:18:54.160Z,81.00
2019-04-14T04:21:35.564Z,80.70
2019-04-14T04:24:27.767Z,80.90
2019-04-14T04:27:15.812Z,80.90
2019-04-14T04:29:53.516Z,81.60
2019-04-14T04:32:36.294Z,81.20
2019-04-14T04:35:35.662Z,81.00
2019-04-14T04:38:10.319Z,81.10
2019-04-14T04:40:42.114Z,81.20
2019-04-14T04:43:12.607Z,81.60
2019-04-14T04:45:43.115Z,81.40
2019-04-14T04:48:13.446Z,81.30
2019-04-14T04:50:43.591Z,81.40
2019-04-14T04:53:13.773Z,81.60
2019-04-14T04:55:44.188Z,81.40
2019-04-14T04:58:15.184Z,81.40
2019-04-14T05:00:47.370Z,81.60
2019-04-14T05:03:18.913Z,81.70
2019-04-14T05:06:28.782Z,81.40
2019-04-14T05:09:07.749Z,81.60
2019-04-14T05:11:46.944Z,81.40
2019-04-14T05:14:26.014Z,80.80
2019-04-14T05:16:57.154Z,81.30
2019-04-14T05:19:31.843Z,80.80
2019-04-14T05:21:59.189Z,81.00
2019-04-14T05:24:29.634Z,80.80
2019-04-14T05:26:59.823Z,80.90
2019-04-14T05:29:29.828Z,80.60
2019-04-14T05:32:00.160Z,80.20
2019-04-14T05:34:30.516Z,80.00
2019-04-14T05:37:00.739Z,79.90
2019-04-14T05:39:30.849Z,79.60
2019-04-14T05:42:10.746Z,79.30
2019-04-14T05:44:33.947Z,79.10
2019-04-14T05:47:04.474Z,78.60
2019-04-14T05:49:41.459Z,78.60
2019-04-14T05:52:06.220Z,78.70
2019-04-14T05:54:36.221Z,77.90
2019-04-14T05:57:06.604Z,78.00
2019-04-14T05:59:37.524Z,78.20
2019-04-14T06:02:07.799Z,77.30
2019-04-14T06:04:37.941Z,77.30
2019-04-14T06:07:08.003Z,77.80
2019-04-14T06:09:38.090Z,77.90
2019-04-14T06:12:08.191Z,77.40
2019-04-14T06:14:39.117Z,77.20
2019-04-14T06:17:09.113Z,77.20
2019-04-14T06:19:40.735Z,76.80
2019-04-14T06:22:11.269Z,77.00
2019-04-14T06:24:41.426Z,76.80
2019-04-14T06:27:11.514Z,76.40
2019-04-14T06:29:41.610Z,75.90
2019-04-14T06:32:21.783Z,77.30
2019-04-14T06:35:11.049Z,76.10
2019-04-14T06:37:46.853Z,75.90
2019-04-14T06:40:16.971Z,75.50
2019-04-14T06:42:47.060Z,75.60
2019-04-14T06:45:19.507Z,75.80
2019-04-14T06:47:50.695Z,75.30
2019-04-14T06:50:20.954Z,74.70
2019-04-14T06:52:51.161Z,74.80
2019-04-14T06:55:21.534Z,74.00
2019-04-14T06:57:51.867Z,73.10
2019-04-14T07:00:22.130Z,72.70
2019-04-14T07:02:52.177Z,72.20
2019-04-14T07:05:22.424Z,72.80
2019-04-14T07:07:57.159Z,72.20
2019-04-14T07:10:27.515Z,72.70
2019-04-14T07:12:57.620Z,72.00
2019-04-14T07:15:27.893Z,71.00
2019-04-14T07:17:58.117Z,70.10
2019-04-14T07:20:28.167Z,71.60
2019-04-14T07:22:58.317Z,71.10
2019-04-14T07:25:28.671Z,70.30
2019-04-14T07:27:59.010Z,69.50
2019-04-14T07:30:45.634Z,69.30
2019-04-14T07:33:30.976Z,67.70
2019-04-14T07:36:20.112Z,67.80
2019-04-14T07:38:55.539Z,68.60
2019-04-14T07:41:43.287Z,67.80
2019-04-14T07:44:23.310Z,67.90
2019-04-14T07:47:00.002Z,68.00
2019-04-14T07:49:49.137Z,67.00
2019-04-14T07:52:38.396Z,66.60
2019-04-14T07:55:22.981Z,65.60
2019-04-14T07:58:03.652Z,64.40
2019-04-14T08:00:37.297Z,64.20
2019-04-14T08:03:26.615Z,62.60
2019-04-14T08:05:57.052Z,63.50
2019-04-14T08:08:27.158Z,62.70
2019-04-14T08:10:57.874Z,63.10
2019-04-14T08:13:27.927Z,63.50
2019-04-14T08:15:58.106Z,62.30
2019-04-14T08:18:28.530Z,59.10
2019-04-14T08:20:58.623Z,59.90
2019-04-14T08:23:28.683Z,59.60
2019-04-14T08:25:59.093Z,56.70
2019-04-14T08:28:29.101Z,55.90
2019-04-14T08:30:59.214Z,55.40
2019-04-14T08:33:29.348Z,54.70
2019-04-14T08:35:59.494Z,55.50
2019-04-14T08:38:29.568Z,55.70
2019-04-14T08:40:59.688Z,56.30
2019-04-14T08:43:48.815Z,54.40
2019-04-14T08:46:38.026Z,53.80
2019-04-14T08:49:18.463Z,53.40
2019-04-14T08:52:07.654Z,55.10
2019-04-14T08:54:56.861Z,54.00
2019-04-14T08:57:37.070Z,52.70
2019-04-14T09:00:13.678Z,50.80
2019-04-14T09:03:02.861Z,50.40
2019-04-14T09:05:52.187Z,51.70
2019-04-14T09:08:27.601Z,51.50
2019-04-14T09:10:59.972Z,51.20
2019-04-14T09:13:29.908Z,51.70
2019-04-14T09:16:00.109Z,51.50
2019-04-14T09:18:30.448Z,51.80
2019-04-14T09:21:00.655Z,51.60
2019-04-14T09:23:31.170Z,50.70
2019-04-14T09:26:01.448Z,51.30
2019-04-14T09:28:31.542Z,52.10
2019-04-14T09:31:01.693Z,50.90
2019-04-14T09:33:31.891Z,49.80
2019-04-14T09:36:01.971Z,49.10
2019-04-14T09:38:32.730Z,48.40
2019-04-14T09:41:02.809Z,49.00
2019-04-14T09:43:32.947Z,49.70
2019-04-14T09:46:03.062Z,49.40
2019-04-14T09:48:33.203Z,48.80
2019-04-14T09:51:04.963Z,47.30
2019-04-14T09:53:35.285Z,47.40
2019-04-14T09:56:05.685Z,47.30
2019-04-14T09:58:37.472Z,45.60
2019-04-14T10:01:09.155Z,47.50
2019-04-14T10:03:39.484Z,46.70
2019-04-14T10:06:09.768Z,46.30
2019-04-14T10:08:40.269Z,46.20
2019-04-14T10:11:11.616Z,45.50
2019-04-14T10:13:41.931Z,45.70
2019-04-14T10:16:12.292Z,46.00
2019-04-14T10:18:42.354Z,44.70
2019-04-14T10:21:17.693Z,44.50
2019-04-14T10:23:44.349Z,43.20
2019-04-14T10:26:14.524Z,41.60
2019-04-14T10:28:45.173Z,42.70
2019-04-14T10:31:15.469Z,42.10
2019-04-14T10:33:45.594Z,38.90
2019-04-14T10:36:15.855Z,35.50
2019-04-14T10:38:46.104Z,34.40
2019-04-14T10:41:18.297Z,32.80
2019-04-14T10:43:48.571Z,32.00
2019-04-14T10:46:19.655Z,29.60
2019-04-14T10:48:49.929Z,28.10
2019-04-14T10:51:29.370Z,26.90
2019-04-14T10:53:51.936Z,27.10
2019-04-14T10:56:22.015Z,25.80
2019-04-14T10:58:52.193Z,25.60
2019-04-14T11:01:22.341Z,25.10
2019-04-14T11:03:52.807Z,24.40
2019-04-14T11:06:28.525Z,24.50
2019-04-14T11:08:58.592Z,23.40
2019-04-14T11:11:28.852Z,23.20
2019-04-14T11:13:59.060Z,22.30
2019-04-14T11:16:29.252Z,21.70
2019-04-14T11:18:59.367Z,21.20
2019-04-14T11:21:41.628Z,22.10
2019-04-14T11:24:01.877Z,21.00
2019-04-14T11:26:33.021Z,22.90
2019-04-14T11:29:03.279Z,22.60
2019-04-14T11:31:53.493Z,20.90
2019-04-14T11:34:27.309Z,20.40
2019-04-14T11:37:06.121Z,19.60
2019-04-14T11:39:36.425Z,19.70
2019-04-14T11:42:06.704Z,19.90
2019-04-14T11:44:37.357Z,20.50
2019-04-14T11:47:08.239Z,19.90
2019-04-14T11:49:38.450Z,19.70
2019-04-14T11:52:08.701Z,19.50
2019-04-14T11:54:38.964Z,18.80
2019-04-14T11:57:09.047Z,19.40
2019-04-14T11:59:57.111Z,19.60
2019-04-14T12:02:45.598Z,20.20
2019-04-14T12:05:30.364Z,21.40
2019-04-14T12:08:19.492Z,23.10
2019-04-14T12:10:51.258Z,23.00
2019-04-14T12:13:21.334Z,24.20
2019-04-14T12:15:51.424Z,23.30
2019-04-14T12:18:21.437Z,24.30
2019-04-14T12:20:51.544Z,24.50
2019-04-14T12:23:21.801Z,24.80
2019-04-14T12:26:04.476Z,25.80
2019-04-14T12:28:24.048Z,25.50
2019-04-14T12:30:57.617Z,26.00
2019-04-14T12:33:35.406Z,26.70
2019-04-14T12:36:14.032Z,28.00
2019-04-14T12:38:44.378Z,27.90
2019-04-14T12:41:19.801Z,28.40
2019-04-14T12:44:11.920Z,27.80
2019-04-14T12:46:53.155Z,27.80
2019-04-14T12:49:27.491Z,27.80
2019-04-14T12:52:21.367Z,28.20
2019-04-14T12:54:52.977Z,28.30
2019-04-14T12:57:39.872Z,27.80
2019-04-14T13:00:18.847Z,27.80
2019-04-14T13:02:50.962Z,28.60
2019-04-14T13:05:22.325Z,28.70
2019-04-14T13:07:56.260Z,28.40
2019-04-14T13:10:26.948Z,27.60
2019-04-14T13:15:51.594Z,27.80
2019-04-14T13:18:22.199Z,28.60
2019-04-14T13:21:00.956Z,27.80
2019-04-14T13:23:31.139Z,27.90
2019-04-14T13:26:01.406Z,27.60
2019-04-14T13:28:31.564Z,28.20
2019-04-14T13:31:01.611Z,28.10
2019-04-14T13:33:33.455Z,28.70
2019-04-14T13:36:12.532Z,28.70
2019-04-14T13:38:43.366Z,27.60
2019-04-14T13:41:13.998Z,27.40
2019-04-14T13:43:44.009Z,27.10
2019-04-14T13:46:14.316Z,27.60
2019-04-14T13:48:44.749Z,28.00
2019-04-14T13:51:15.370Z,28.30
2019-04-14T13:53:45.573Z,28.00
2019-04-14T13:56:18.003Z,27.80
2019-04-14T13:58:49.097Z,27.80
2019-04-14T14:01:19.194Z,28.20
2019-04-14T14:03:49.451Z,28.50
2019-04-14T14:06:19.626Z,27.90
2019-04-14T14:08:49.608Z,28.20
2019-04-14T14:11:32.194Z,28.60
2019-04-14T14:14:07.575Z,28.60
2019-04-14T14:16:56.751Z,28.50
2019-04-14T14:19:37.874Z,28.40
2019-04-14T14:22:16.192Z,27.80
2019-04-14T14:24:53.887Z,28.90
2019-04-14T14:27:24.007Z,28.30
2019-04-14T14:29:54.179Z,28.50
2019-04-14T14:32:27.913Z,28.00
2019-04-14T14:34:59.017Z,28.70
2019-04-14T14:37:29.924Z,27.90
2019-04-14T14:40:00.094Z,28.00
2019-04-14T14:42:32.588Z,27.50
2019-04-14T14:45:18.772Z,28.60
2019-04-14T14:48:00.955Z,28.30
2019-04-14T14:50:37.458Z,26.70
2019-04-14T14:53:12.339Z,27.60
2019-04-14T14:55:40.088Z,27.20
2019-04-14T14:58:10.196Z,27.30
2019-04-14T15:00:40.627Z,27.60
2019-04-14T15:03:12.417Z,27.90
2019-04-14T15:05:44.782Z,28.00
2019-04-14T15:08:16.507Z,28.10
2019-04-14T15:10:49.490Z,29.40
2019-04-14T15:13:19.936Z,29.40
2019-04-14T15:15:50.967Z,29.00
2019-04-14T15:18:21.498Z,29.20
2019-04-14T15:20:51.848Z,29.70
2019-04-14T15:23:25.198Z,29.10
2019-04-14T15:25:53.811Z,29.50
2019-04-14T15:28:24.062Z,30.70
2019-04-14T15:30:54.836Z,30.30
2019-04-14T15:33:25.307Z,30.30
2019-04-14T15:35:55.435Z,30.80
2019-04-14T15:38:25.620Z,30.70
2019-04-14T15:40:55.988Z,30.60
2019-04-14T15:43:27.049Z,30.30
2019-04-14T15:45:57.487Z,30.50
2019-04-14T15:48:27.950Z,30.80
2019-04-14T15:51:03.032Z,30.70
2019-04-14T15:53:38.162Z,31.10
2019-04-14T15:56:05.378Z,31.40
2019-04-14T15:58:41.339Z,31.30
2019-04-14T16:01:24.538Z,31.60
2019-04-14T16:04:13.332Z,31.60
2019-04-14T16:07:02.567Z,31.90
2019-04-14T16:09:48.769Z,32.00
2019-04-14T16:12:37.897Z,32.80
2019-04-14T16:15:20.856Z,32.50
2019-04-14T16:18:09.603Z,33.20
2019-04-14T16:20:41.919Z,32.50
2019-04-14T16:23:12.104Z,32.30
2019-04-14T16:26:01.306Z,32.90
2019-04-14T16:28:36.885Z,32.60
2019-04-14T16:31:27.135Z,32.60
2019-04-14T16:34:01.941Z,32.90
2019-04-14T16:36:32.174Z,33.00
2019-04-14T16:39:05.219Z,33.20
2019-04-14T16:41:36.838Z,33.20
2019-04-14T16:44:06.877Z,33.90
2019-04-14T16:46:36.995Z,34.70
2019-04-14T16:49:07.209Z,34.80
2019-04-14T16:51:47.110Z,35.20
2019-04-14T16:54:24.209Z,35.20
2019-04-14T16:57:06.428Z,35.30
2019-04-14T16:59:36.487Z,35.30
2019-04-14T17:02:11.030Z,35.60
2019-04-14T17:04:38.572Z,36.40
2019-04-14T17:07:08.728Z,36.40
2019-04-14T17:09:38.812Z,36.50
2019-04-14T17:12:10.538Z,36.80
2019-04-14T17:14:44.928Z,37.20
2019-04-14T17:17:34.010Z,37.10
2019-04-14T17:20:15.678Z,37.40
2019-04-14T17:23:05.027Z,37.10
2019-04-14T17:25:55.647Z,38.30
2019-04-14T17:28:44.868Z,38.50
2019-04-14T17:31:22.588Z,38.50
2019-04-14T17:34:10.111Z,38.80
2019-04-14T17:36:48.453Z,39.40
2019-04-14T17:39:37.638Z,39.60
2019-04-14T17:42:18.967Z,39.90
2019-04-14T17:45:08.233Z,40.10
2019-04-14T17:47:58.992Z,40.50
2019-04-14T17:50:40.874Z,40.60
2019-04-14T17:53:15.207Z,41.10
2019-04-14T17:56:03.590Z,41.20
2019-04-14T17:58:52.790Z,41.70
2019-04-14T18:01:41.878Z,41.90
2019-04-14T18:04:26.183Z,42.20
2019-04-14T18:07:03.892Z,43.30
2019-04-14T18:09:53.119Z,43.00
2019-04-14T18:12:33.613Z,43.10
2019-04-14T18:15:23.307Z,43.60
2019-04-14T18:18:12.570Z,43.90
2019-04-14T18:21:00.086Z,44.20
2019-04-14T18:23:30.249Z,45.30
2019-04-14T18:26:00.735Z,45.60
2019-04-14T18:28:42.814Z,45.90
2019-04-14T18:31:31.932Z,47.00
2019-04-14T18:34:14.487Z,46.40
2019-04-14T18:36:55.933Z,46.70
2019-04-14T18:39:45.294Z,47.40
2019-04-14T18:42:27.307Z,47.70
2019-04-14T18:45:08.178Z,47.90
2019-04-14T18:47:58.903Z,48.00
2019-04-14T18:50:41.199Z,48.00
2019-04-14T18:53:16.365Z,48.50
2019-04-14T18:56:06.229Z,48.30
2019-04-14T18:58:55.339Z,48.50
2019-04-14T19:01:28.593Z,49.20
2019-04-14T19:04:02.244Z,48.60
2019-04-14T19:06:32.962Z,48.70
2019-04-14T19:11:53.355Z,48.90
2019-04-14T19:14:27.219Z,49.20
2019-04-14T19:17:10.006Z,49.40
2019-04-14T19:19:42.929Z,49.50
2019-04-14T19:22:32.339Z,49.50
2019-04-14T19:25:08.473Z,49.60
2019-04-14T19:27:34.468Z,50.30
2019-04-14T19:30:06.249Z,49.80
2019-04-14T19:32:55.502Z,49.90
2019-04-14T19:35:26.977Z,49.70
2019-04-14T19:37:57.931Z,50.30
2019-04-14T19:40:29.477Z,50.40
2019-04-14T19:42:59.924Z,50.30
2019-04-14T19:45:30.462Z,50.50
2019-04-14T19:48:01.739Z,50.50
2019-04-14T19:50:33.373Z,50.50
2019-04-14T19:53:04.903Z,50.90
2019-04-14T19:55:37.281Z,50.80
2019-04-14T19:58:07.838Z,51.10
2019-04-14T20:00:38.252Z,51.00
2019-04-14T20:03:08.566Z,51.20
2019-04-14T20:05:39.115Z,51.50
2019-04-14T20:08:09.421Z,51.90
2019-04-14T20:10:39.536Z,51.90
2019-04-14T20:13:09.678Z,52.00
2019-04-14T20:15:58.834Z,52.00
2019-04-14T20:18:47.946Z,52.20
2019-04-14T20:21:28.100Z,52.50
2019-04-14T20:24:12.108Z,52.50
2019-04-14T20:26:50.936Z,52.60
2019-04-14T20:29:24.657Z,52.70
2019-04-14T20:32:01.870Z,52.70
2019-04-14T20:34:32.006Z,53.00
2019-04-14T20:37:02.188Z,52.90
2019-04-14T20:39:32.687Z,53.40
2019-04-14T20:42:02.952Z,53.40
2019-04-14T20:44:33.009Z,53.40
2019-04-14T20:47:03.462Z,53.40
2019-04-14T20:49:46.180Z,53.90
2019-04-14T20:52:17.622Z,53.80
2019-04-14T20:54:47.753Z,53.90
2019-04-14T20:57:18.102Z,53.90
2019-04-14T20:59:48.305Z,54.00
2019-04-14T21:02:37.458Z,54.00
2019-04-14T21:05:26.639Z,54.10
2019-04-14T21:08:15.829Z,54.60
2019-04-14T21:10:56.378Z,54.50
2019-04-14T21:13:38.461Z,54.70
2019-04-14T21:16:21.385Z,54.80
2019-04-14T21:18:55.455Z,54.90
2019-04-14T21:21:44.526Z,55.30
2019-04-14T21:24:33.602Z,55.10
2019-04-14T21:27:19.361Z,55.10
2019-04-14T21:30:03.328Z,55.30
2019-04-14T21:32:38.951Z,55.40
2019-04-14T21:35:28.309Z,55.70
2019-04-14T21:38:09.912Z,56.10
2019-04-14T21:40:46.758Z,56.30
2019-04-14T21:43:16.823Z,56.50
2019-04-14T21:45:47.230Z,56.90
2019-04-14T21:48:17.435Z,57.00
2019-04-14T21:50:47.563Z,57.30
2019-04-14T21:53:17.660Z,57.40
2019-04-14T21:55:48.023Z,57.70
2019-04-14T21:58:24.103Z,58.10
2019-04-14T22:01:49.990Z,58.00
2019-04-14T22:04:39.984Z,57.80
2019-04-14T22:07:29.414Z,58.40
2019-04-14T22:10:07.678Z,58.20
2019-04-14T22:12:37.990Z,58.60
2019-04-14T22:15:08.450Z,58.90
2019-04-14T22:17:38.680Z,58.90
2019-04-14T22:20:10.330Z,59.10
2019-04-14T22:22:40.389Z,59.10
2019-04-14T22:25:10.741Z,59.60
2019-04-14T22:27:40.751Z,59.70
2019-04-14T22:30:11.388Z,60.10
2019-04-14T22:32:41.554Z,60.20
2019-04-14T22:35:12.238Z,60.50
2019-04-14T22:37:42.441Z,60.60
2019-04-14T22:40:13.482Z,60.90
2019-04-14T22:42:43.577Z,61.00
2019-04-14T22:45:13.884Z,61.30
2019-04-14T22:47:44.095Z,61.30
2019-04-14T22:50:14.246Z,61.90
2019-04-14T22:52:44.384Z,62.00
2019-04-14T22:55:14.832Z,62.20
2019-04-14T22:57:45.041Z,62.40
2019-04-14T23:00:25.571Z,62.90
2019-04-14T23:03:35.423Z,63.00
2019-04-14T23:06:16.526Z,63.30
2019-04-14T23:08:53.832Z,63.90
2019-04-14T23:11:42.918Z,64.10
2019-04-14T23:14:25.299Z,64.10
2019-04-14T23:17:14.389Z,64.90
2019-04-14T23:19:48.519Z,65.00
2019-04-14T23:22:37.626Z,65.30
2019-04-14T23:25:07.877Z,65.40
2019-04-14T23:27:40.650Z,66.30
2019-04-14T23:30:13.311Z,66.70
2019-04-14T23:32:43.349Z,67.00
2019-04-14T23:35:13.491Z,67.40
2019-04-14T23:37:43.693Z,68.00
2019-04-14T23:40:13.931Z,68.40
2019-04-14T23:42:44.102Z,69.60
2019-04-14T23:45:14.862Z,69.80
2019-04-14T23:47:45.091Z,70.20
2019-04-14T23:50:15.178Z,70.40
2019-04-14T23:52:46.129Z,70.90
2019-04-14T23:55:16.325Z,71.30
2019-04-14T23:57:46.260Z,71.20
